Currently 57°F in Murrieta, California, USA
57°F
77°F / 53°F
calm
0.00"
Monday, May 29, 2017 10:39 PM PDT

Murrieta, California Weather Summary
Last 36 Hours

Temperature Winds Hourly Humidity Dewpoint
Time Report Norm Report Norm Max Gusts Precip. Rpt. Norm Rpt. Norm Pressure
1Mon 10:39 PM  57.0°F  58°F  calm  4 mph  none  0.00"  96%  89%  56°F  55°F  29.97"
Mon 10:00 PM  57.0°F  59°F  calm  4 mph  18 mph  0.00"  96%  88%  56°F  55°F  29.96"
Mon 09:00 PM  58.0°F  60°F  calm  6 mph  21 mph  0.00"  93%  85%  56°F  55°F  29.93"
Mon 08:00 PM  62.0°F  63°F  1 mph SW  8 mph  22 mph  0.00"  83%  79%  57°F  56°F  29.91"
Mon 07:00 PM  66.4°F  67°F  11 mph SW  9 mph  21 mph  0.00"  75%  70%  58°F  57°F  29.89"
Mon 06:00 PM  71.3°F  71°F  6 mph SW  11 mph  18 mph  0.00"  65%  62%  59°F  57°F  29.88"
Mon 05:00 PM  74.8°F  74°F  calm  12 mph  18 mph  0.00"  60%  56%  59°F  57°F  29.89"
Mon 04:00 PM  76.6°F  76°F  calm  12 mph  20 mph  0.00"  57%  52%  60°F  56°F  29.90"
2Mon 03:00 PM  77.1°F  77°F  calm  12 mph  19 mph  0.00"  57%  50%  60°F  57°F  29.92"
Mon 02:00 PM  73.2°F  77°F  calm  10 mph  17 mph  0.00"  63%  50%  60°F  57°F  29.93"
Mon 01:00 PM  70.5°F  77°F  calm  9 mph  18 mph  0.00"  70%  50%  60°F  56°F  29.95"
Mon 12:00 PM  66.4°F  75°F  calm  7 mph  19 mph  0.00"  78%  53%  59°F  56°F  29.95"
Mon 11:00 AM  64.1°F  72°F  3 mph NW  5 mph  19 mph  0.00"  81%  60%  58°F  57°F  29.96"
Mon 10:00 AM  61.8°F  68°F  calm  3 mph  20 mph  0.00"  86%  70%  57°F  57°F  29.95"
Mon 09:00 AM  64.2°F  63°F  calm  2 mph  5 mph  0.00"  83%  81%  59°F  57°F  29.94"
Mon 08:00 AM  57.0°F  59°F  calm  1 mph  none  0.00"  96%  88%  56°F  56°F  29.95"
Mon 07:00 AM  54.7°F  56°F  calm  1 mph  none  0.00"  96%  92%  54°F  53°F  29.95"
Mon 06:00 AM  52.9°F  54°F  calm  1 mph  none  0.00"  95%  94%  52°F  52°F  29.96"
3Mon 05:14 AM  52.8°F  54°F  calm  1 mph  none  ----  95%  94%  51°F  52°F  29.96"
Mon 05:00 AM  53.0°F  54°F  calm  1 mph  none  0.00"  95%  94%  52°F  52°F  29.96"
Mon 04:00 AM  54.0°F  54°F  calm  1 mph  none  0.00"  95%  93%  53°F  52°F  29.96"
Mon 03:00 AM  54.3°F  55°F  calm  1 mph  6 mph  0.00"  94%  93%  53°F  53°F  29.96"
Mon 02:00 AM  55.3°F  55°F  calm  2 mph  4 mph  0.00"  93%  92%  53°F  53°F  29.97"
Mon 01:00 AM  56.5°F  56°F  calm  2 mph  4 mph  0.00"  92%  92%  54°F  53°F  29.99"
Mon 12:00 AM  57.7°F  56°F  calm  2 mph  none  0.00"  90%  91%  55°F  54°F  30.00"
Sun 11:00 PM  59.4°F  57°F  calm  4 mph  7 mph  0.00"  89%  90%  56°F  54°F  30.02"
Sun 10:00 PM  60.3°F  58°F  calm  4 mph  none  0.00"  87%  88%  56°F  55°F  30.02"
Sun 09:00 PM  61.8°F  60°F  calm  6 mph  18 mph  0.00"  84%  85%  57°F  55°F  30.00"
Sun 08:00 PM  64.3°F  63°F  calm  8 mph  18 mph  0.00"  79%  80%  58°F  56°F  29.99"
Sun 07:00 PM  69.4°F  67°F  7 mph SW  9 mph  19 mph  0.00"  69%  71%  58°F  57°F  29.97"
Sun 06:00 PM  71.6°F  70°F  calm  11 mph  26 mph  0.00"  63%  63%  58°F  57°F  29.96"
Sun 05:00 PM  74.8°F  73°F  17 mph SW  12 mph  23 mph  0.00"  58%  57%  59°F  57°F  29.96"
Sun 04:00 PM  76.9°F  75°F  12 mph SW  12 mph  22 mph  0.00"  54%  53%  58°F  56°F  29.98"
Sun 03:00 PM  79.3°F  76°F  calm  12 mph  25 mph  0.00"  50%  52%  58°F  57°F  29.98"
Sun 02:00 PM  80.4°F  76°F  10 mph SW  10 mph  19 mph  0.00"  47%  52%  58°F  57°F  30.00"
Sun 01:00 PM  83.0°F  76°F  8 mph SW  9 mph  11 mph  0.00"  40%  52%  56°F  56°F  30.01"
Sun 12:00 PM  80.7°F  74°F  calm  7 mph  8 mph  0.00"  38%  54%  52°F  56°F  30.03"
Sun 11:00 AM  76.8°F  71°F  2 mph SE  5 mph  7 mph  0.00"  47%  62%  55°F  57°F  30.04"

  1. Current weather data. No green row appears if the current weather data is also the high or low for the current day.
  2. High temperature for the current day.
  3. Low temperature for the current day.

The Murrieta weather pages are a service of WeatherCurrents. Murrieta, California is located in the Temecula Valley, in southwestern Riverside County, at the junctions of the Interstate 15 and 215 highways.
Copyright ©Mon May 29 22:39:29 PDT 2017  WeatherCurrents. All rights reserved. - Submit questions and comments - Privacy Policy

This page automatically refreshes every 10 minutes.